Time;durP1;ratioP1;P1;durP2;ratioP2;P2;SDS_P1;SDS_P2;PMS_P1;PMS_P2;Temp;Humidity;BMP_temperature;BMP_pressure;BME280_temperature;BME280_humidity;BME280_pressure;Samples;Min_cycle;Max_cycle;Signal;HPM_P1;HPM_P2
2022/05/17 00:02:13;;;;;;;;;;;;;;;14.97;64.15;98247.30;1690690;84;21933;-84
2022/05/17 00:04:39;;;;;;;;;;;;;;;15.01;64.46;98237.31;1695700;83;25949;-84
2022/05/17 00:07:05;;;;;;;;;;;;;;;15.05;64.72;98233.45;1699083;84;24409;-83
2022/05/17 00:09:32;;;;;;;;;;;;;;;14.98;64.82;98226.58;1696858;84;20807;-87
2022/05/17 00:11:59;;;;;;;;;;;;;;;14.87;65.04;98224.56;1697653;82;24805;-88
2022/05/17 00:14:28;;;;;;;;;;;;;;;14.77;65.35;98223.73;1698400;84;21513;-87
2022/05/17 00:16:55;;;;;;;;;;;;;;;14.67;65.67;98226.86;1693396;84;26030;-87
2022/05/17 00:19:28;;;;;;;;;;;;;;;14.62;66.06;98225.44;1693923;84;25419;-87
2022/05/17 00:21:56;;;;;;;;;;;;;;;14.59;66.63;98224.89;1693109;83;20178;-87
2022/05/17 00:24:24;;;;;;;;;;;;;;;14.36;66.88;98223.44;1697211;84;24795;-87
2022/05/17 00:26:53;;;;;;;;;;;;;;;14.18;67.24;98224.09;1672544;84;22875;-87
2022/05/17 00:29:19;;;;;;;;;;;;;;;14.10;67.64;98215.21;1677887;84;26017;-84
2022/05/17 00:31:45;;;;;;;;;;;;;;;14.05;68.04;98222.20;1691702;84;20851;-84
2022/05/17 00:34:11;;;;;;;;;;;;;;;14.03;68.45;98215.39;1689339;84;20807;-82
2022/05/17 00:36:37;;;;;;;;;;;;;;;14.15;68.92;98221.73;1694524;84;24808;-87
2022/05/17 00:39:03;;;;;;;;;;;;;;;14.23;69.48;98226.34;1699351;82;21991;-87
2022/05/17 00:41:29;;;;;;;;;;;;;;;14.24;69.86;98227.50;1700125;84;26024;-83
2022/05/17 00:46:44;;;;;;;;;;;;;;;14.02;70.83;98221.64;1713174;82;20293;-83
2022/05/17 00:49:12;;;;;;;;;;;;;;;13.93;71.33;98219.31;1709124;82;25077;-84
2022/05/17 00:51:39;;;;;;;;;;;;;;;13.91;71.89;98218.60;1713264;82;22119;-84
2022/05/17 00:54:08;;;;;;;;;;;;;;;13.89;72.45;98211.34;1709060;82;26094;-82
2022/05/17 00:56:36;;;;;;;;;;;;;;;13.91;73.17;98208.59;1720544;82;24427;-83
2022/05/17 00:59:02;;;;;;;;;;;;;;;13.96;73.83;98207.70;1721382;82;20176;-82
2022/05/17 01:01:30;;;;;;;;;;;;;;;14.15;74.46;98205.11;1718546;82;24748;-82
2022/05/17 01:04:11;;;;;;;;;;;;;;;14.39;74.95;98204.30;1724758;82;21811;-84
2022/05/17 01:06:42;;;;;;;;;;;;;;;14.58;75.26;98202.99;1724686;82;26769;-87
2022/05/17 01:09:17;;;;;;;;;;;;;;;14.71;75.34;98202.73;1724093;82;25063;-87
2022/05/17 01:11:43;;;;;;;;;;;;;;;14.78;75.34;98205.65;1720955;82;20274;-87
2022/05/17 01:17:04;;;;;;;;;;;;;;;14.91;75.35;98194.32;1716732;82;22136;-84
2022/05/17 01:19:32;;;;;;;;;;;;;;;14.98;75.47;98196.75;1705922;82;22225;-83
2022/05/17 01:21:57;;;;;;;;;;;;;;;15.00;75.65;98198.77;1763297;80;24534;-83
2022/05/17 01:24:25;;;;;;;;;;;;;;;15.05;75.83;98194.72;1765101;80;20808;-83
2022/05/17 01:26:53;;;;;;;;;;;;;;;15.07;75.93;98194.09;1760593;80;25481;-84
2022/05/17 01:29:19;;;;;;;;;;;;;;;15.06;76.00;98198.18;1765859;80;21956;-82
2022/05/17 01:31:45;;;;;;;;;;;;;;;15.05;76.05;98196.55;1759696;80;21102;-87
2022/05/17 01:34:11;;;;;;;;;;;;;;;15.06;76.15;98194.23;1760958;80;24523;-83
2022/05/17 01:36:38;;;;;;;;;;;;;;;14.97;76.16;98201.67;1762455;80;20461;-83
2022/05/17 01:39:05;;;;;;;;;;;;;;;14.89;76.14;98197.61;1762398;80;24304;-84
2022/05/17 01:41:32;;;;;;;;;;;;;;;14.72;76.14;98199.61;1771080;80;21976;-84
2022/05/17 01:43:59;;;;;;;;;;;;;;;14.57;76.26;98196.05;1757590;80;26156;-84
2022/05/17 01:46:25;;;;;;;;;;;;;;;14.66;76.67;98197.05;1732023;81;24545;-86
2022/05/17 01:48:51;;;;;;;;;;;;;;;14.77;77.02;98192.96;1741832;81;20202;-83
2022/05/17 01:51:20;;;;;;;;;;;;;;;14.77;77.20;98194.27;1740095;80;24790;-83
2022/05/17 01:53:46;;;;;;;;;;;;;;;14.77;77.34;98195.59;1732716;81;22042;-84
2022/05/17 01:56:13;;;;;;;;;;;;;;;14.65;77.39;98189.63;1739687;81;26175;-87
2022/05/17 01:58:45;;;;;;;;;;;;;;;14.44;77.44;98189.41;1744179;81;24448;-87
2022/05/17 02:01:11;;;;;;;;;;;;;;;14.19;77.64;98188.91;1733595;81;20666;-87
2022/05/17 02:03:37;;;;;;;;;;;;;;;14.16;78.01;98189.20;1749175;81;24787;-82
2022/05/17 02:06:03;;;;;;;;;;;;;;;14.27;78.71;98192.67;1733320;81;22043;-82
2022/05/17 02:08:30;;;;;;;;;;;;;;;14.35;79.29;98188.38;1748116;81;26044;-83
2022/05/17 02:10:56;;;;;;;;;;;;;;;14.46;79.60;98189.60;1731955;81;24799;-83
2022/05/17 02:13:22;;;;;;;;;;;;;;;14.56;79.92;98186.48;1737154;81;20219;-83
2022/05/17 02:15:48;;;;;;;;;;;;;;;14.58;80.18;98187.19;1740326;81;20379;-84
2022/05/17 02:18:14;;;;;;;;;;;;;;;14.57;80.42;98189.95;1739854;81;21967;-83
2022/05/17 02:20:41;;;;;;;;;;;;;;;14.58;80.63;98191.14;1744051;81;25957;-82
2022/05/17 02:23:07;;;;;;;;;;;;;;;14.49;80.63;98188.03;1735988;81;24465;-82
2022/05/17 02:25:39;;;;;;;;;;;;;;;14.37;80.67;98190.91;1742447;81;20436;-82
2022/05/17 02:28:06;;;;;;;;;;;;;;;14.43;80.93;98195.16;1742235;81;24787;-82
2022/05/17 02:30:32;;;;;;;;;;;;;;;14.44;81.20;98200.77;1736655;81;22620;-84
2022/05/17 02:32:58;;;;;;;;;;;;;;;14.38;81.36;98200.48;1736156;81;21585;-84
2022/05/17 02:35:24;;;;;;;;;;;;;;;14.32;81.58;98203.14;1744233;81;20756;-84
2022/05/17 02:37:50;;;;;;;;;;;;;;;14.28;81.92;98199.61;1729432;81;20800;-85
2022/05/17 02:40:16;;;;;;;;;;;;;;;14.29;82.30;98198.16;1733700;81;20339;-83
2022/05/17 02:42:42;;;;;;;;;;;;;;;14.29;82.59;98201.28;1681005;84;21937;-84
2022/05/17 02:45:08;;;;;;;;;;;;;;;14.24;82.77;98195.91;1750649;80;21165;-83
2022/05/17 02:47:34;;;;;;;;;;;;;;;14.20;82.99;98200.27;1766204;80;24591;-83
2022/05/17 02:50:00;;;;;;;;;;;;;;;14.24;83.30;98195.91;1766232;80;20456;-83
2022/05/17 02:52:26;;;;;;;;;;;;;;;14.28;83.41;98202.23;1766003;80;20234;-82
2022/05/17 02:54:55;;;;;;;;;;;;;;;14.26;83.40;98207.63;1762770;80;20396;-83
2022/05/17 02:57:21;;;;;;;;;;;;;;;14.22;83.51;98211.03;1762547;80;26025;-84
2022/05/17 02:59:47;;;;;;;;;;;;;;;14.18;83.75;98215.39;1761075;80;20395;-83
2022/05/17 03:02:13;;;;;;;;;;;;;;;14.15;84.08;98210.37;1772869;80;20466;-83
2022/05/17 03:04:39;;;;;;;;;;;;;;;14.09;84.37;98210.91;1764741;80;20269;-86
2022/05/17 03:07:05;;;;;;;;;;;;;;;14.06;84.68;98209.87;1777228;80;20279;-87
2022/05/17 03:09:31;;;;;;;;;;;;;;;14.17;85.08;98211.92;1757406;80;20897;-82
2022/05/17 03:11:57;;;;;;;;;;;;;;;14.27;85.41;98211.94;1764323;80;24465;-82
2022/05/17 03:14:23;;;;;;;;;;;;;;;14.34;85.67;98210.44;1763162;80;20470;-83
2022/05/17 03:16:49;;;;;;;;;;;;;;;14.43;85.85;98215.38;1770798;80;20757;-82
2022/05/17 03:19:16;;;;;;;;;;;;;;;14.42;85.89;98209.77;1768858;80;21932;-82
2022/05/17 03:21:43;;;;;;;;;;;;;;;14.31;85.94;98213.80;1761214;80;26697;-82
2022/05/17 03:24:09;;;;;;;;;;;;;;;14.09;86.02;98213.06;1766037;80;24413;-83
2022/05/17 03:26:35;;;;;;;;;;;;;;;13.93;86.19;98215.84;1766674;80;20804;-83
2022/05/17 03:29:02;;;;;;;;;;;;;;;13.80;86.41;98218.73;1767701;80;24746;-84
2022/05/17 03:31:28;;;;;;;;;;;;;;;13.70;86.76;98220.45;1762700;80;22052;-83
2022/05/17 03:33:54;;;;;;;;;;;;;;;13.63;87.31;98219.34;1762880;80;25991;-83
2022/05/17 03:36:20;;;;;;;;;;;;;;;13.55;87.84;98219.98;1759292;80;20325;-84
2022/05/17 03:38:46;;;;;;;;;;;;;;;13.44;88.31;98224.48;1763866;80;20286;-84
2022/05/17 03:41:12;;;;;;;;;;;;;;;13.33;88.79;98230.65;1769087;80;24741;-83
2022/05/17 03:43:41;;;;;;;;;;;;;;;13.28;89.38;98230.20;1765542;80;22127;-87
2022/05/17 03:46:08;;;;;;;;;;;;;;;13.27;90.11;98221.48;1770457;80;20919;-84
2022/05/17 03:48:37;;;;;;;;;;;;;;;13.32;90.73;98227.66;1757464;80;24739;-85
2022/05/17 03:51:05;;;;;;;;;;;;;;;13.37;91.28;98228.10;1761430;80;20253;-84
2022/05/17 03:53:36;;;;;;;;;;;;;;;13.48;91.70;98232.45;1756202;80;24733;-86
2022/05/17 03:56:03;;;;;;;;;;;;;;;13.54;92.16;98226.20;1755684;80;21913;-84
2022/05/17 03:58:29;;;;;;;;;;;;;;;13.57;92.65;98225.95;1761285;80;26021;-84
2022/05/17 04:00:55;;;;;;;;;;;;;;;13.56;92.97;98226.08;1765321;80;20869;-87
2022/05/17 04:03:22;;;;;;;;;;;;;;;13.60;93.23;98226.16;1763415;80;20439;-87
2022/05/17 04:05:48;;;;;;;;;;;;;;;13.75;93.63;98225.67;1762047;80;24629;-85
2022/05/17 04:08:14;;;;;;;;;;;;;;;13.99;94.17;98227.98;1759767;80;20294;-87
2022/05/17 04:10:40;;;;;;;;;;;;;;;14.19;94.53;98233.66;1757937;80;21195;-87
2022/05/17 04:13:06;;;;;;;;;;;;;;;14.32;94.62;98225.52;1769112;80;24471;-87
2022/05/17 04:15:32;;;;;;;;;;;;;;;14.46;94.85;98230.89;1764250;80;20564;-84
2022/05/17 04:17:58;;;;;;;;;;;;;;;14.63;95.07;98229.75;1761371;80;24719;-83
2022/05/17 04:20:26;;;;;;;;;;;;;;;14.60;95.09;98227.41;1766406;80;20773;-83
2022/05/17 04:22:54;;;;;;;;;;;;;;;14.45;94.94;98230.58;1761363;80;26084;-83
2022/05/17 04:25:21;;;;;;;;;;;;;;;14.26;94.98;98226.05;1759355;80;24621;-84
2022/05/17 04:27:51;;;;;;;;;;;;;;;14.10;95.06;98234.95;1760769;80;20629;-83
2022/05/17 04:30:17;;;;;;;;;;;;;;;14.06;95.39;98232.24;1754747;80;24819;-82
2022/05/17 04:32:43;;;;;;;;;;;;;;;14.23;96.06;98234.23;1758645;80;20857;-83
2022/05/17 04:35:10;;;;;;;;;;;;;;;14.44;96.78;98229.73;1756462;80;26028;-87
2022/05/17 04:37:36;;;;;;;;;;;;;;;14.58;97.35;98225.86;1753683;80;24548;-82
2022/05/17 04:40:09;;;;;;;;;;;;;;;14.72;97.90;98229.91;1765064;80;20479;-82
2022/05/17 04:42:36;;;;;;;;;;;;;;;14.83;98.30;98228.45;1761120;80;25434;-87
2022/05/17 04:45:03;;;;;;;;;;;;;;;14.95;98.77;98220.73;1760616;80;21980;-83
2022/05/17 04:47:30;;;;;;;;;;;;;;;15.06;98.99;98220.10;1723283;82;26664;-86
2022/05/17 04:49:56;;;;;;;;;;;;;;;15.16;99.26;98220.12;1722976;82;24537;-87
2022/05/17 04:52:26;;;;;;;;;;;;;;;15.25;99.43;98228.48;1722406;82;20246;-83
2022/05/17 04:54:53;;;;;;;;;;;;;;;15.24;99.42;98232.09;1714084;82;24822;-87
2022/05/17 04:57:19;;;;;;;;;;;;;;;15.02;99.03;98236.34;1715899;82;21939;-87
2022/05/17 04:59:45;;;;;;;;;;;;;;;14.80;98.99;98240.09;1708027;82;21221;-87
2022/05/17 05:02:11;;;;;;;;;;;;;;;14.62;99.07;98245.20;1722478;82;24520;-87
2022/05/17 05:04:38;;;;;;;;;;;;;;;14.71;99.51;98244.88;1721403;82;20266;-81
2022/05/17 05:07:07;;;;;;;;;;;;;;;14.87;100.00;98245.16;1720564;81;25364;-82
2022/05/17 05:09:34;;;;;;;;;;;;;;;14.90;100.00;98259.36;1722156;82;22263;-84
2022/05/17 05:12:00;;;;;;;;;;;;;;;14.84;100.00;98257.76;1727693;82;26333;-84
2022/05/17 05:14:30;;;;;;;;;;;;;;;14.83;100.00;98258.75;1724893;82;24609;-84
2022/05/17 05:16:57;;;;;;;;;;;;;;;15.01;100.00;98252.64;1720094;82;20470;-84
2022/05/17 05:19:26;;;;;;;;;;;;;;;15.24;100.00;98256.30;1723643;82;24699;-84
2022/05/17 05:21:52;;;;;;;;;;;;;;;15.37;100.00;98262.13;1721460;82;22145;-84
2022/05/17 05:24:18;;;;;;;;;;;;;;;15.33;100.00;98262.87;1719112;82;25945;-84
2022/05/17 05:26:44;;;;;;;;;;;;;;;15.22;100.00;98261.70;1721939;82;24468;-84
2022/05/17 05:29:10;;;;;;;;;;;;;;;15.07;100.00;98261.80;1704275;83;20763;-83
2022/05/17 05:31:36;;;;;;;;;;;;;;;14.94;100.00;98263.89;1720841;82;20297;-83
2022/05/17 05:34:02;;;;;;;;;;;;;;;14.92;100.00;98264.50;1717631;82;20237;-82
2022/05/17 05:36:29;;;;;;;;;;;;;;;15.07;100.00;98267.89;1721249;82;26063;-82
2022/05/17 05:38:55;;;;;;;;;;;;;;;15.24;100.00;98269.48;1722749;82;24618;-83
2022/05/17 05:41:21;;;;;;;;;;;;;;;15.42;100.00;98262.05;1713675;82;20245;-85
2022/05/17 05:43:47;;;;;;;;;;;;;;;15.62;100.00;98265.98;1718017;82;20298;-83
2022/05/17 05:46:13;;;;;;;;;;;;;;;15.79;100.00;98265.23;1724072;81;20504;-83
2022/05/17 05:48:46;;;;;;;;;;;;;;;15.94;100.00;98266.91;1738840;80;26060;-83
2022/05/17 05:51:15;;;;;;;;;;;;;;;16.09;100.00;98263.65;1737911;82;25125;-83
2022/05/17 05:53:43;;;;;;;;;;;;;;;16.21;100.00;98266.94;1743920;80;20661;-84
2022/05/17 05:56:10;;;;;;;;;;;;;;;16.28;100.00;98271.98;1740068;82;24870;-87
2022/05/17 05:58:37;;;;;;;;;;;;;;;16.30;100.00;98279.28;1744315;82;22049;-84
2022/05/17 06:01:04;;;;;;;;;;;;;;;16.36;100.00;98280.51;1739950;82;26058;-82
2022/05/17 06:03:30;;;;;;;;;;;;;;;16.42;100.00;98279.41;1737994;81;24445;-87
2022/05/17 06:05:56;;;;;;;;;;;;;;;16.49;100.00;98279.66;1737927;82;20252;-83
2022/05/17 06:08:22;;;;;;;;;;;;;;;16.57;100.00;98275.31;1739799;80;20762;-88
2022/05/17 06:10:49;;;;;;;;;;;;;;;16.64;100.00;98277.70;1736986;82;20256;-87
2022/05/17 06:13:22;;;;;;;;;;;;;;;16.72;100.00;98278.30;1736682;82;25999;-87
2022/05/17 06:15:50;;;;;;;;;;;;;;;16.76;100.00;98272.20;1740538;82;24510;-87
2022/05/17 06:18:22;;;;;;;;;;;;;;;16.85;100.00;98274.81;1741247;82;20275;-87
2022/05/17 06:20:53;;;;;;;;;;;;;;;16.91;100.00;98271.53;1742729;82;24804;-88
2022/05/17 06:23:21;;;;;;;;;;;;;;;16.99;100.00;98272.95;1738955;82;22249;-83
2022/05/17 06:25:47;;;;;;;;;;;;;;;17.07;100.00;98269.04;1740496;82;26128;-83
2022/05/17 06:28:13;;;;;;;;;;;;;;;17.09;100.00;98264.44;1737376;82;24603;-83
2022/05/17 06:30:41;;;;;;;;;;;;;;;17.09;100.00;98260.48;1743929;82;20278;-83
2022/05/17 06:33:07;;;;;;;;;;;;;;;17.09;100.00;98260.97;1740218;82;24874;-84
2022/05/17 06:35:33;;;;;;;;;;;;;;;17.11;100.00;98263.81;1742794;80;22074;-83
2022/05/17 06:37:59;;;;;;;;;;;;;;;17.17;100.00;98262.38;1737386;82;25817;-83
2022/05/17 06:40:25;;;;;;;;;;;;;;;17.22;100.00;98260.59;1736030;82;20227;-83
2022/05/17 06:42:51;;;;;;;;;;;;;;;17.33;100.00;98259.02;1741576;82;20845;-87
2022/05/17 06:45:18;;;;;;;;;;;;;;;17.43;100.00;98259.27;1741860;82;24405;-83
2022/05/17 06:47:44;;;;;;;;;;;;;;;17.49;100.00;98259.14;1769473;80;20398;-83
2022/05/17 06:50:10;;;;;;;;;;;;;;;17.42;100.00;98255.44;1777556;80;21044;-83
2022/05/17 06:52:36;;;;;;;;;;;;;;;17.40;100.00;98253.46;1771256;80;24443;-83
2022/05/17 06:55:03;;;;;;;;;;;;;;;17.46;100.00;98258.11;1770011;80;20206;-83
2022/05/17 06:57:30;;;;;;;;;;;;;;;17.47;100.00;98256.64;1771071;80;24908;-85
2022/05/17 06:59:56;;;;;;;;;;;;;;;17.54;100.00;98256.37;1768705;80;22121;-83
2022/05/17 07:02:22;;;;;;;;;;;;;;;17.65;100.00;98267.22;1771357;80;20960;-84
2022/05/17 07:04:48;;;;;;;;;;;;;;;17.70;100.00;98263.61;1773234;80;20273;-87
2022/05/17 07:07:14;;;;;;;;;;;;;;;17.72;100.00;98262.14;1766850;80;20442;-88
2022/05/17 07:09:40;;;;;;;;;;;;;;;17.74;100.00;98259.66;1770694;80;24803;-88
2022/05/17 07:14:51;;;;;;;;;;;;;;;17.84;100.00;98259.05;1768135;80;25995;-83
2022/05/17 07:17:18;;;;;;;;;;;;;;;17.94;100.00;98262.45;1779009;80;25148;-88
2022/05/17 07:19:47;;;;;;;;;;;;;;;18.05;100.00;98268.45;1754775;80;20240;-88
2022/05/17 07:22:13;;;;;;;;;;;;;;;18.10;100.00;98261.69;1767595;80;24813;-88
2022/05/17 07:24:45;;;;;;;;;;;;;;;18.13;100.00;98263.17;1768263;80;22105;-83
2022/05/17 07:27:09;;;;;;;;;;;;;;;18.19;100.00;98258.57;1770072;80;26667;-83
2022/05/17 07:29:35;;;;;;;;;;;;;;;18.23;100.00;98262.55;1776262;80;24435;-83
2022/05/17 07:32:01;;;;;;;;;;;;;;;18.25;100.00;98264.56;1773984;80;20291;-83
2022/05/17 07:34:27;;;;;;;;;;;;;;;18.26;100.00;98264.41;1768671;80;20750;-87
2022/05/17 07:36:54;;;;;;;;;;;;;;;18.24;100.00;98263.73;1772053;80;21662;-88
2022/05/17 07:39:20;;;;;;;;;;;;;;;18.28;100.00;98265.55;1770075;80;26161;-84
2022/05/17 07:41:47;;;;;;;;;;;;;;;18.26;100.00;98266.23;1775538;80;20373;-85
2022/05/17 07:44:13;;;;;;;;;;;;;;;18.28;100.00;98266.88;1768352;80;20264;-88
2022/05/17 07:46:39;;;;;;;;;;;;;;;18.28;100.00;98269.03;1756581;80;20333;-87
2022/05/17 07:49:06;;;;;;;;;;;;;;;18.26;100.00;98268.38;1768342;80;22159;-88
2022/05/17 07:51:38;;;;;;;;;;;;;;;18.30;100.00;98265.74;1771248;80;26736;-88
2022/05/17 07:54:04;;;;;;;;;;;;;;;18.35;100.00;98268.73;1757801;80;24797;-88
2022/05/17 07:56:30;;;;;;;;;;;;;;;18.39;100.00;98269.23;1763632;80;20455;-82
2022/05/17 07:58:56;;;;;;;;;;;;;;;18.39;100.00;98266.59;1768643;80;24789;-83
2022/05/17 08:01:22;;;;;;;;;;;;;;;18.36;100.00;98269.08;1763203;80;20919;-84
2022/05/17 08:03:48;;;;;;;;;;;;;;;18.39;100.00;98268.75;1761875;80;20943;-84
2022/05/17 08:06:15;;;;;;;;;;;;;;;18.39;100.00;98271.89;1768531;80;20260;-83
2022/05/17 08:08:41;;;;;;;;;;;;;;;18.35;100.00;98269.23;1762615;80;20279;-83
2022/05/17 08:11:07;;;;;;;;;;;;;;;18.40;100.00;98274.88;1768017;80;24751;-85
2022/05/17 08:13:33;;;;;;;;;;;;;;;18.40;100.00;98271.73;1768301;80;22023;-84
2022/05/17 08:16:00;;;;;;;;;;;;;;;18.41;100.00;98265.95;1764183;80;21009;-83
2022/05/17 08:18:29;;;;;;;;;;;;;;;18.42;100.00;98272.08;1764996;80;24546;-84
2022/05/17 08:20:54;;;;;;;;;;;;;;;18.49;100.00;98272.61;1766431;80;20211;-84
2022/05/17 08:23:26;;;;;;;;;;;;;;;18.62;100.00;98281.44;1763998;80;24813;-84
2022/05/17 08:28:37;;;;;;;;;;;;;;;18.72;100.00;98277.66;1763359;80;27372;-83
2022/05/17 08:31:03;;;;;;;;;;;;;;;18.76;100.00;98281.63;1762575;80;24495;-82
2022/05/17 08:33:30;;;;;;;;;;;;;;;18.78;100.00;98284.13;1768820;80;20637;-83
2022/05/17 08:36:03;;;;;;;;;;;;;;;18.82;100.00;98285.46;1763890;80;24743;-83
2022/05/17 08:38:32;;;;;;;;;;;;;;;18.82;100.00;98290.77;1762008;80;22711;-83
2022/05/17 08:41:12;;;;;;;;;;;;;;;18.81;100.00;98293.11;1763669;80;25979;-83
2022/05/17 08:43:39;;;;;;;;;;;;;;;18.77;100.00;98275.34;1769569;80;24487;-83
2022/05/17 08:46:25;;;;;;;;;;;;;;;18.91;100.00;98287.65;1767201;80;20233;-83
2022/05/17 08:48:59;;;;;;;;;;;;;;;18.93;100.00;98285.15;1765060;80;25966;-83
2022/05/17 08:51:27;;;;;;;;;;;;;;;18.97;100.00;98283.02;1756667;80;21970;-83
2022/05/17 08:53:53;;;;;;;;;;;;;;;18.99;100.00;98283.67;1757764;80;26180;-83
2022/05/17 08:56:19;;;;;;;;;;;;;;;19.06;100.00;98280.70;1761041;80;24590;-83
2022/05/17 08:58:47;;;;;;;;;;;;;;;19.14;100.00;98279.41;1762637;80;20561;-83
2022/05/17 09:01:25;;;;;;;;;;;;;;;19.18;100.00;98286.03;1760203;80;25382;-82
2022/05/17 09:04:11;;;;;;;;;;;;;;;19.25;100.00;98279.57;1766750;80;21945;-83
2022/05/17 09:06:45;;;;;;;;;;;;;;;19.34;100.00;98282.05;1760651;80;26032;-83
2022/05/17 09:09:19;;;;;;;;;;;;;;;19.38;100.00;98284.70;1766628;80;25099;-85
2022/05/17 09:11:55;;;;;;;;;;;;;;;19.35;100.00;98292.17;1760309;80;20221;-83
2022/05/17 09:14:26;;;;;;;;;;;;;;;19.35;100.00;98290.84;1764801;80;24849;-84
2022/05/17 09:17:11;;;;;;;;;;;;;;;19.32;100.00;98293.31;1754007;80;22633;-83
2022/05/17 09:19:37;;;;;;;;;;;;;;;19.35;100.00;98292.17;1762379;80;25683;-84
2022/05/17 09:22:03;;;;;;;;;;;;;;;19.38;100.00;98293.16;1765007;80;20795;-88
2022/05/17 09:24:32;;;;;;;;;;;;;;;19.37;100.00;98297.63;1760948;80;20195;-89
2022/05/17 09:27:04;;;;;;;;;;;;;;;19.40;100.00;98295.99;1763394;80;24941;-88
2022/05/17 09:29:37;;;;;;;;;;;;;;;19.43;100.00;98288.17;1758403;80;22755;-85
2022/05/17 09:32:11;;;;;;;;;;;;;;;19.48;100.00;98293.35;1766200;80;26100;-83
2022/05/17 09:34:37;;;;;;;;;;;;;;;19.53;100.00;98291.02;1771802;80;24632;-88
2022/05/17 09:37:06;;;;;;;;;;;;;;;19.63;100.00;98297.52;1757303;80;20223;-85
2022/05/17 09:39:32;;;;;;;;;;;;;;;19.74;100.00;98287.05;1753202;80;25456;-85
2022/05/17 09:42:00;;;;;;;;;;;;;;;19.79;100.00;98286.87;1764607;80;22018;-85
2022/05/17 09:44:28;;;;;;;;;;;;;;;19.85;100.00;98288.85;1764624;80;26100;-83
2022/05/17 09:46:59;;;;;;;;;;;;;;;19.96;100.00;98284.52;1763296;80;24450;-83
2022/05/17 09:52:34;;;;;;;;;;;;;;;20.09;100.00;98284.45;1765454;80;24793;-83
2022/05/17 09:55:14;;;;;;;;;;;;;;;20.15;100.00;98287.76;1762454;80;22083;-84
2022/05/17 09:57:53;;;;;;;;;;;;;;;20.14;100.00;98284.27;1766286;80;25971;-85
2022/05/17 10:00:23;;;;;;;;;;;;;;;20.16;100.00;98279.63;1762901;80;24637;-88
2022/05/17 10:03:00;;;;;;;;;;;;;;;20.14;100.00;98282.94;1763805;80;20175;-83
2022/05/17 10:05:28;;;;;;;;;;;;;;;20.16;100.00;98287.59;1765160;80;24736;-83
2022/05/17 10:08:02;;;;;;;;;;;;;;;20.23;100.00;98288.58;1765610;80;22597;-88
2022/05/17 10:10:36;;;;;;;;;;;;;;;20.31;100.00;98281.06;1765113;80;25992;-83
2022/05/17 10:13:04;;;;;;;;;;;;;;;20.37;100.00;98281.73;1767377;80;25199;-83
2022/05/17 10:15:32;;;;;;;;;;;;;;;20.38;100.00;98278.08;1763401;80;20235;-83
2022/05/17 10:18:01;;;;;;;;;;;;;;;20.32;100.00;98284.91;1764923;80;25694;-83
2022/05/17 10:20:40;;;;;;;;;;;;;;;20.23;100.00;98291.23;1763685;80;21578;-84
2022/05/17 10:23:09;;;;;;;;;;;;;;;20.20;100.00;98288.91;1768773;80;26701;-84
2022/05/17 10:25:38;;;;;;;;;;;;;;;20.16;100.00;98287.59;1764008;80;25168;-83
2022/05/17 10:28:05;;;;;;;;;;;;;;;20.15;100.00;98295.73;1766710;80;20291;-83
2022/05/17 10:30:51;;;;;;;;;;;;;;;20.17;100.00;98297.23;1769305;80;24831;-83
2022/05/17 10:33:36;;;;;;;;;;;;;;;20.09;100.00;98296.41;1762712;80;22128;-83
2022/05/17 10:36:04;;;;;;;;;;;;;;;20.10;99.69;98298.91;1759656;80;26036;-88
2022/05/17 10:38:34;;;;;;;;;;;;;;;20.08;99.20;98292.92;1763717;80;24446;-88
2022/05/17 10:41:03;;;;;;;;;;;;;;;20.04;98.62;98292.45;1765101;80;20300;-85
2022/05/17 10:43:30;;;;;;;;;;;;;;;20.06;98.40;98301.58;1765547;80;24825;-88
2022/05/17 10:46:10;;;;;;;;;;;;;;;19.99;98.10;98298.77;1759993;80;22740;-85
2022/05/17 10:48:38;;;;;;;;;;;;;;;19.92;97.77;98303.09;1747697;80;27487;-84
2022/05/17 10:51:06;;;;;;;;;;;;;;;19.78;97.18;98309.59;1732689;81;24611;-83
2022/05/17 10:53:40;;;;;;;;;;;;;;;19.72;96.95;98310.27;1736505;81;20250;-84
2022/05/17 10:56:08;;;;;;;;;;;;;;;19.65;96.82;98310.09;1734560;81;24823;-82
2022/05/17 10:58:45;;;;;;;;;;;;;;;19.62;96.85;98317.09;1745030;80;22018;-83
2022/05/17 11:01:19;;;;;;;;;;;;;;;19.60;96.88;98315.91;1736064;81;26006;-88
2022/05/17 11:03:46;;;;;;;;;;;;;;;19.64;97.11;98312.42;1740787;81;24269;-85
2022/05/17 11:06:21;;;;;;;;;;;;;;;19.64;97.21;98314.58;1739488;81;20337;-84
2022/05/17 11:08:55;;;;;;;;;;;;;;;19.66;97.14;98310.94;1750160;81;24833;-88
2022/05/17 11:11:40;;;;;;;;;;;;;;;19.66;97.16;98310.44;1731581;81;22003;-85
2022/05/17 11:14:24;;;;;;;;;;;;;;;19.68;97.26;98308.45;1740369;80;26184;-85
2022/05/17 11:17:02;;;;;;;;;;;;;;;19.72;97.28;98311.09;1748395;81;24447;-84
2022/05/17 11:19:36;;;;;;;;;;;;;;;19.71;97.13;98311.26;1727149;81;20246;-85
2022/05/17 11:22:04;;;;;;;;;;;;;;;19.66;96.86;98314.91;1746843;81;24910;-83
2022/05/17 11:24:48;;;;;;;;;;;;;;;19.49;96.48;98313.59;1742443;81;22012;-85
2022/05/17 11:27:16;;;;;;;;;;;;;;;19.30;95.96;98311.75;1741758;81;26024;-85
2022/05/17 11:29:44;;;;;;;;;;;;;;;19.13;95.55;98312.22;1733188;81;24484;-85
2022/05/17 11:32:24;;;;;;;;;;;;;;;19.08;95.49;98314.54;1751365;81;20201;-88
2022/05/17 11:34:53;;;;;;;;;;;;;;;19.13;95.57;98316.20;1740933;81;24780;-85
2022/05/17 11:37:32;;;;;;;;;;;;;;;19.15;95.78;98312.38;1741944;81;24322;-84
2022/05/17 11:40:00;;;;;;;;;;;;;;;19.08;95.63;98310.06;1738168;81;25954;-85
2022/05/17 11:43:40;;;;;;;;;;;;;;;19.24;96.12;98315.89;1735941;80;24504;-84
2022/05/17 11:45:19;;;;;;;;;;;;;;;19.28;96.30;98317.70;1736026;81;20642;-84
2022/05/17 11:47:52;;;;;;;;;;;;;;;19.25;96.39;98317.55;1747173;80;25497;-83
2022/05/17 11:50:30;;;;;;;;;;;;;;;19.05;95.88;98318.34;1765996;80;22035;-83
2022/05/17 11:52:58;;;;;;;;;;;;;;;18.93;95.73;98322.80;1758242;80;25843;-88
2022/05/17 11:55:28;;;;;;;;;;;;;;;18.88;95.82;98325.92;1698946;83;24500;-84
2022/05/17 11:57:56;;;;;;;;;;;;;;;18.89;95.92;98330.73;1763873;80;20555;-83
2022/05/17 12:00:28;;;;;;;;;;;;;;;18.73;95.58;98335.00;1762576;80;24836;-83
2022/05/17 12:02:55;;;;;;;;;;;;;;;18.71;95.65;98330.34;1755863;80;21993;-85
2022/05/17 12:05:42;;;;;;;;;;;;;;;18.58;95.61;98330.47;1763274;80;25950;-83
2022/05/17 12:08:26;;;;;;;;;;;;;;;18.47;95.60;98338.19;1758828;80;24472;-84
2022/05/17 12:11:12;;;;;;;;;;;;;;;18.50;95.88;98337.02;1766475;80;20213;-88
2022/05/17 12:13:40;;;;;;;;;;;;;;;18.39;95.93;98334.98;1764594;80;25411;-84
2022/05/17 12:16:11;;;;;;;;;;;;;;;18.22;96.10;98333.77;1765533;80;21937;-83
2022/05/17 12:18:39;;;;;;;;;;;;;;;18.16;96.49;98329.09;1766970;80;26249;-85
2022/05/17 12:21:26;;;;;;;;;;;;;;;18.26;97.27;98329.80;1757163;80;25074;-88
2022/05/17 12:23:54;;;;;;;;;;;;;;;18.37;98.02;98334.83;1763597;80;20321;-83
2022/05/17 12:26:25;;;;;;;;;;;;;;;18.37;98.64;98333.02;1761974;80;24712;-84
2022/05/17 12:28:53;;;;;;;;;;;;;;;18.42;99.22;98331.20;1758909;80;22673;-85
2022/05/17 12:31:21;;;;;;;;;;;;;;;18.49;99.78;98334.89;1754972;80;26038;-82
2022/05/17 12:33:49;;;;;;;;;;;;;;;18.47;100.00;98335.53;1762768;80;25051;-83
2022/05/17 12:36:17;;;;;;;;;;;;;;;18.48;100.00;98345.16;1769938;80;20217;-88
2022/05/17 12:44:17;;;;;;;;;;;;;;;18.46;100.00;98359.53;1764924;80;26002;-88
2022/05/17 12:46:45;;;;;;;;;;;;;;;18.45;100.00;98360.02;1759592;80;24532;-83
2022/05/17 12:49:15;;;;;;;;;;;;;;;18.53;100.00;98354.78;1751895;80;20242;-83
2022/05/17 12:51:42;;;;;;;;;;;;;;;18.60;100.00;98349.19;1755730;81;24757;-85
2022/05/17 12:54:13;;;;;;;;;;;;;;;18.73;100.00;98351.40;1743797;81;21830;-85
2022/05/17 12:56:43;;;;;;;;;;;;;;;18.83;100.00;98349.93;1748714;81;26591;-85
2022/05/17 12:59:09;;;;;;;;;;;;;;;18.83;100.00;98349.93;1744207;80;24390;-83
2022/05/17 13:01:38;;;;;;;;;;;;;;;18.77;100.00;98346.10;1748441;81;20493;-83
2022/05/17 13:04:06;;;;;;;;;;;;;;;18.71;100.00;98350.22;1744763;81;24319;-83
2022/05/17 13:06:33;;;;;;;;;;;;;;;18.69;100.00;98350.90;1747998;80;22054;-87
2022/05/17 13:09:02;;;;;;;;;;;;;;;18.76;100.00;98349.25;1755175;81;26622;-87
2022/05/17 13:11:28;;;;;;;;;;;;;;;18.78;100.00;98349.09;1754011;81;24488;-83